sensor_id;sensor_type;location;lat;lon;timestamp;pressure;altitude;pressure_sealevel;temperature;humidity
6938;BME280;40040;42.706;23.372;2022-12-20T00:01:52;144121.59;;;-0.30;100.00
6938;BME280;40040;42.706;23.372;2022-12-20T00:04:18;144121.59;;;-0.30;100.00
6938;BME280;40040;42.706;23.372;2022-12-20T00:06:45;144115.50;;;-0.32;100.00
6938;BME280;40040;42.706;23.372;2022-12-20T00:09:12;144110.59;;;-0.34;100.00
6938;BME280;40040;42.706;23.372;2022-12-20T00:11:40;144111.84;;;-0.34;100.00
6938;BME280;40040;42.706;23.372;2022-12-20T00:14:07;144072.72;;;-0.50;100.00
6938;BME280;40040;42.706;23.372;2022-12-20T00:16:36;144115.50;;;-0.32;100.00
6938;BME280;40040;42.706;23.372;2022-12-20T00:19:05;144119.16;;;-0.31;100.00
6938;BME280;40040;42.706;23.372;2022-12-20T00:21:33;144119.16;;;-0.31;100.00
6938;BME280;40040;42.706;23.372;2022-12-20T00:24:00;144133.84;;;-0.25;100.00
6938;BME280;40040;42.706;23.372;2022-12-20T00:26:28;144139.94;;;-0.22;100.00
6938;BME280;40040;42.706;23.372;2022-12-20T00:28:56;144141.16;;;-0.22;100.00
6938;BME280;40040;42.706;23.372;2022-12-20T00:31:24;144128.94;;;-0.27;100.00
6938;BME280;40040;42.706;23.372;2022-12-20T00:33:54;144088.59;;;-0.43;100.00
6938;BME280;40040;42.706;23.372;2022-12-20T00:36:22;144150.97;;;-0.18;100.00
6938;BME280;40040;42.706;23.372;2022-12-20T00:38:50;144139.94;;;-0.22;100.00
6938;BME280;40040;42.706;23.372;2022-12-20T00:41:19;144165.63;;;-0.12;100.00
6938;BME280;40040;42.706;23.372;2022-12-20T00:43:47;144168.09;;;-0.11;100.00
6938;BME280;40040;42.706;23.372;2022-12-20T00:46:15;144172.94;;;-0.09;100.00
6938;BME280;40040;42.706;23.372;2022-12-20T00:48:43;144131.38;;;-0.26;100.00
6938;BME280;40040;42.706;23.372;2022-12-20T00:51:12;144175.41;;;-0.08;100.00
6938;BME280;40040;42.706;23.372;2022-12-20T00:53:40;144106.94;;;-0.36;100.00
6938;BME280;40040;42.706;23.372;2022-12-20T00:56:08;144191.28;;;-0.01;100.00
6938;BME280;40040;42.706;23.372;2022-12-20T00:58:36;144153.38;;;-0.17;100.00
6938;BME280;40040;42.706;23.372;2022-12-20T01:01:04;144198.63;;;0.02;100.00
6938;BME280;40040;42.706;23.372;2022-12-20T01:03:31;144210.84;;;0.07;100.00
6938;BME280;40040;42.706;23.372;2022-12-20T01:05:59;144219.41;;;0.11;100.00
6938;BME280;40040;42.706;23.372;2022-12-20T01:08:29;144226.78;;;0.14;100.00
6938;BME280;40040;42.706;23.372;2022-12-20T01:10:59;144216.97;;;0.10;100.00
6938;BME280;40040;42.706;23.372;2022-12-20T01:13:26;144236.53;;;0.18;100.00
6938;BME280;40040;42.706;23.372;2022-12-20T01:15:54;144231.69;;;0.16;100.00
6938;BME280;40040;42.706;23.372;2022-12-20T01:18:21;144242.66;;;0.20;100.00
6938;BME280;40040;42.706;23.372;2022-12-20T01:20:47;144239.00;;;0.19;100.00
6938;BME280;40040;42.706;23.372;2022-12-20T01:23:14;144208.41;;;0.06;100.00
6938;BME280;40040;42.706;23.372;2022-12-20T01:25:42;144229.19;;;0.15;100.00
6938;BME280;40040;42.706;23.372;2022-12-20T01:28:10;144208.41;;;0.06;100.00
6938;BME280;40040;42.706;23.372;2022-12-20T01:30:39;144207.19;;;0.06;100.00
6938;BME280;40040;42.706;23.372;2022-12-20T01:33:06;144160.72;;;-0.14;100.00
6938;BME280;40040;42.706;23.372;2022-12-20T01:35:32;144192.53;;;-0.01;100.00
6938;BME280;40040;42.706;23.372;2022-12-20T01:37:59;144180.31;;;-0.06;100.00
6938;BME280;40040;42.706;23.372;2022-12-20T01:40:26;144176.66;;;-0.07;100.00
6938;BME280;40040;42.706;23.372;2022-12-20T01:42:54;144165.63;;;-0.12;100.00
6938;BME280;40040;42.706;23.372;2022-12-20T01:45:24;144083.69;;;-0.45;100.00
6938;BME280;40040;42.706;23.372;2022-12-20T01:47:52;144128.94;;;-0.27;100.00
6938;BME280;40040;42.706;23.372;2022-12-20T01:50:21;144139.94;;;-0.22;100.00
6938;BME280;40040;42.706;23.372;2022-12-20T01:52:48;144133.84;;;-0.25;100.00
6938;BME280;40040;42.706;23.372;2022-12-20T01:55:17;144092.25;;;-0.42;100.00
6938;BME280;40040;42.706;23.372;2022-12-20T01:57:47;144153.38;;;-0.17;100.00
6938;BME280;40040;42.706;23.372;2022-12-20T02:00:19;144116.72;;;-0.32;100.00
6938;BME280;40040;42.706;23.372;2022-12-20T02:02:47;144143.59;;;-0.21;100.00
6938;BME280;40040;42.706;23.372;2022-12-20T02:05:16;144117.91;;;-0.31;100.00
6938;BME280;40040;42.706;23.372;2022-12-20T02:07:45;144146.06;;;-0.20;100.00
6938;BME280;40040;42.706;23.372;2022-12-20T02:10:14;144132.63;;;-0.25;100.00
6938;BME280;40040;42.706;23.372;2022-12-20T02:12:44;144109.38;;;-0.35;100.00
6938;BME280;40040;42.706;23.372;2022-12-20T02:15:23;144146.06;;;-0.20;100.00
6938;BME280;40040;42.706;23.372;2022-12-20T02:18:03;144138.69;;;-0.23;100.00
6938;BME280;40040;42.706;23.372;2022-12-20T02:21:05;144153.38;;;-0.17;100.00
6938;BME280;40040;42.706;23.372;2022-12-20T02:27:21;144128.94;;;-0.27;100.00
6938;BME280;40040;42.706;23.372;2022-12-20T02:30:06;144136.28;;;-0.24;100.00
6938;BME280;40040;42.706;23.372;2022-12-20T02:32:37;144128.94;;;-0.27;100.00
6938;BME280;40040;42.706;23.372;2022-12-20T02:35:06;144120.38;;;-0.30;100.00
6938;BME280;40040;42.706;23.372;2022-12-20T02:37:33;144119.16;;;-0.31;100.00
6938;BME280;40040;42.706;23.372;2022-12-20T02:40:01;144103.28;;;-0.37;100.00
6938;BME280;40040;42.706;23.372;2022-12-20T02:42:31;144109.38;;;-0.35;100.00
6938;BME280;40040;42.706;23.372;2022-12-20T02:45:02;144092.25;;;-0.42;100.00
6938;BME280;40040;42.706;23.372;2022-12-20T02:47:48;144110.59;;;-0.34;100.00
6938;BME280;40040;42.706;23.372;2022-12-20T02:50:17;144103.28;;;-0.37;100.00
6938;BME280;40040;42.706;23.372;2022-12-20T02:52:45;144097.16;;;-0.40;100.00
6938;BME280;40040;42.706;23.372;2022-12-20T02:55:13;144089.81;;;-0.43;100.00
6938;BME280;40040;42.706;23.372;2022-12-20T02:57:44;144082.50;;;-0.46;100.00
6938;BME280;40040;42.706;23.372;2022-12-20T03:00:17;144050.69;;;-0.59;100.00
6938;BME280;40040;42.706;23.372;2022-12-20T03:02:46;144060.50;;;-0.55;100.00
6938;BME280;40040;42.706;23.372;2022-12-20T03:05:33;144067.81;;;-0.52;100.00
6938;BME280;40040;42.706;23.372;2022-12-20T03:08:01;144037.25;;;-0.64;100.00
6938;BME280;40040;42.706;23.372;2022-12-20T03:10:28;144055.59;;;-0.57;100.00
6938;BME280;40040;42.706;23.372;2022-12-20T03:12:55;144045.81;;;-0.61;100.00
6938;BME280;40040;42.706;23.372;2022-12-20T03:15:24;144042.16;;;-0.62;100.00
6938;BME280;40040;42.706;23.372;2022-12-20T03:17:50;144016.47;;;-0.73;100.00
6938;BME280;40040;42.706;23.372;2022-12-20T03:20:17;143990.81;;;-0.83;100.00
6938;BME280;40040;42.706;23.372;2022-12-20T03:22:44;143992.03;;;-0.83;100.00
6938;BME280;40040;42.706;23.372;2022-12-20T03:25:11;143957.84;;;-0.97;100.00
6938;BME280;40040;42.706;23.372;2022-12-20T03:27:38;143918.72;;;-1.13;100.00
6938;BME280;40040;42.706;23.372;2022-12-20T03:30:06;143951.75;;;-0.99;100.00
6938;BME280;40040;42.706;23.372;2022-12-20T03:32:34;143963.97;;;-0.94;100.00
6938;BME280;40040;42.706;23.372;2022-12-20T03:35:01;143952.94;;;-0.99;100.00
6938;BME280;40040;42.706;23.372;2022-12-20T03:37:28;143915.06;;;-1.15;100.00
6938;BME280;40040;42.706;23.372;2022-12-20T03:39:55;143950.50;;;-1.00;100.00
6938;BME280;40040;42.706;23.372;2022-12-20T03:42:21;143948.03;;;-1.01;100.00
6938;BME280;40040;42.706;23.372;2022-12-20T03:44:48;143927.28;;;-1.09;100.00
6938;BME280;40040;42.706;23.372;2022-12-20T03:47:15;143911.41;;;-1.16;100.00
6938;BME280;40040;42.706;23.372;2022-12-20T03:49:43;143901.63;;;-1.20;100.00
6938;BME280;40040;42.706;23.372;2022-12-20T03:52:11;143899.19;;;-1.21;100.00
6938;BME280;40040;42.706;23.372;2022-12-20T03:54:39;143905.28;;;-1.19;100.00
6938;BME280;40040;42.706;23.372;2022-12-20T03:57:06;143906.50;;;-1.18;100.00
6938;BME280;40040;42.706;23.372;2022-12-20T03:59:33;143897.97;;;-1.22;100.00
6938;BME280;40040;42.706;23.372;2022-12-20T04:02:00;143878.44;;;-1.30;100.00
6938;BME280;40040;42.706;23.372;2022-12-20T04:04:28;143845.47;;;-1.43;100.00
6938;BME280;40040;42.706;23.372;2022-12-20T04:06:56;143865.00;;;-1.35;100.00
6938;BME280;40040;42.706;23.372;2022-12-20T04:09:23;143868.66;;;-1.34;100.00
6938;BME280;40040;42.706;23.372;2022-12-20T04:11:50;143873.53;;;-1.32;100.00
6938;BME280;40040;42.706;23.372;2022-12-20T04:14:16;143872.31;;;-1.32;100.00
6938;BME280;40040;42.706;23.372;2022-12-20T04:16:43;143867.41;;;-1.34;100.00
6938;BME280;40040;42.706;23.372;2022-12-20T04:19:10;143819.81;;;-1.54;100.00
6938;BME280;40040;42.706;23.372;2022-12-20T04:21:37;143860.09;;;-1.37;100.00
6938;BME280;40040;42.706;23.372;2022-12-20T04:24:06;143797.84;;;-1.63;100.00
6938;BME280;40040;42.706;23.372;2022-12-20T04:26:33;143845.47;;;-1.43;100.00
6938;BME280;40040;42.706;23.372;2022-12-20T04:29:00;143830.78;;;-1.49;100.00
6938;BME280;40040;42.706;23.372;2022-12-20T04:31:26;143823.47;;;-1.52;100.00
6938;BME280;40040;42.706;23.372;2022-12-20T04:33:53;143822.25;;;-1.53;100.00
6938;BME280;40040;42.706;23.372;2022-12-20T04:36:20;143808.81;;;-1.58;100.00
6938;BME280;40040;42.706;23.372;2022-12-20T04:38:47;143825.91;;;-1.51;100.00
6938;BME280;40040;42.706;23.372;2022-12-20T04:41:16;143738.00;;;-1.87;100.00
6938;BME280;40040;42.706;23.372;2022-12-20T04:43:48;143825.91;;;-1.51;100.00
6938;BME280;40040;42.706;23.372;2022-12-20T04:46:17;143808.81;;;-1.58;100.00
6938;BME280;40040;42.706;23.372;2022-12-20T04:48:44;143827.13;;;-1.51;100.00
6938;BME280;40040;42.706;23.372;2022-12-20T04:51:11;143835.69;;;-1.47;100.00
6938;BME280;40040;42.706;23.372;2022-12-20T04:53:38;143825.91;;;-1.51;100.00
6938;BME280;40040;42.706;23.372;2022-12-20T04:56:15;143794.19;;;-1.64;100.00
6938;BME280;40040;42.706;23.372;2022-12-20T04:58:43;143816.16;;;-1.55;100.00
6938;BME280;40040;42.706;23.372;2022-12-20T05:01:10;143808.81;;;-1.58;100.00
6938;BME280;40040;42.706;23.372;2022-12-20T05:03:37;143806.38;;;-1.59;100.00
6938;BME280;40040;42.706;23.372;2022-12-20T05:06:04;143774.59;;;-1.72;100.00
6938;BME280;40040;42.706;23.372;2022-12-20T05:08:31;143790.53;;;-1.66;100.00
6938;BME280;40040;42.706;23.372;2022-12-20T05:10:58;143792.94;;;-1.65;100.00
6938;BME280;40040;42.706;23.372;2022-12-20T05:13:26;143777.09;;;-1.71;100.00
6938;BME280;40040;42.706;23.372;2022-12-20T05:15:54;143759.97;;;-1.78;100.00
6938;BME280;40040;42.706;23.372;2022-12-20T05:18:22;143755.09;;;-1.80;100.00
6938;BME280;40040;42.706;23.372;2022-12-20T05:20:49;143755.09;;;-1.80;100.00
6938;BME280;40040;42.706;23.372;2022-12-20T05:23:37;143742.88;;;-1.85;100.00
6938;BME280;40040;42.706;23.372;2022-12-20T05:26:21;143742.88;;;-1.85;100.00
6938;BME280;40040;42.706;23.372;2022-12-20T05:28:50;143723.31;;;-1.93;100.00
6938;BME280;40040;42.706;23.372;2022-12-20T05:31:17;143745.31;;;-1.84;100.00
6938;BME280;40040;42.706;23.372;2022-12-20T05:33:44;143747.78;;;-1.83;100.00
6938;BME280;40040;42.706;23.372;2022-12-20T05:36:12;143728.22;;;-1.91;100.00
6938;BME280;40040;42.706;23.372;2022-12-20T05:38:39;143744.13;;;-1.85;100.00
6938;BME280;40040;42.706;23.372;2022-12-20T05:41:06;143691.63;;;-2.06;100.00
6938;BME280;40040;42.706;23.372;2022-12-20T05:43:33;143739.22;;;-1.87;100.00
6938;BME280;40040;42.706;23.372;2022-12-20T05:46:01;143695.28;;;-2.05;100.00
6938;BME280;40040;42.706;23.372;2022-12-20T05:48:28;143695.28;;;-2.05;100.00
6938;BME280;40040;42.706;23.372;2022-12-20T05:50:55;143724.56;;;-1.93;100.00
6938;BME280;40040;42.706;23.372;2022-12-20T05:53:22;143712.34;;;-1.98;100.00
6938;BME280;40040;42.706;23.372;2022-12-20T05:55:50;143667.22;;;-2.16;100.00
6938;BME280;40040;42.706;23.372;2022-12-20T05:58:18;143662.31;;;-2.18;100.00
6938;BME280;40040;42.706;23.372;2022-12-20T06:00:46;143619.59;;;-2.36;100.00
6938;BME280;40040;42.706;23.372;2022-12-20T06:03:14;143698.94;;;-2.03;100.00
6938;BME280;40040;42.706;23.372;2022-12-20T06:05:41;143694.03;;;-2.05;100.00
6938;BME280;40040;42.706;23.372;2022-12-20T06:08:10;143687.97;;;-2.08;100.00
6938;BME280;40040;42.706;23.372;2022-12-20T06:10:38;143664.75;;;-2.17;100.00
6938;BME280;40040;42.706;23.372;2022-12-20T06:13:06;143657.44;;;-2.20;100.00
6938;BME280;40040;42.706;23.372;2022-12-20T06:15:33;143650.13;;;-2.23;100.00
6938;BME280;40040;42.706;23.372;2022-12-20T06:18:00;143647.66;;;-2.24;100.00
6938;BME280;40040;42.706;23.372;2022-12-20T06:20:28;143603.75;;;-2.43;100.00
6938;BME280;40040;42.706;23.372;2022-12-20T06:22:55;143650.13;;;-2.23;100.00
6938;BME280;40040;42.706;23.372;2022-12-20T06:25:22;143551.28;;;-2.64;100.00
6938;BME280;40040;42.706;23.372;2022-12-20T06:27:50;143655.03;;;-2.21;100.00
6938;BME280;40040;42.706;23.372;2022-12-20T06:30:17;143635.47;;;-2.30;100.00
6938;BME280;40040;42.706;23.372;2022-12-20T06:32:44;143662.31;;;-2.18;100.00
6938;BME280;40040;42.706;23.372;2022-12-20T06:35:11;143574.47;;;-2.55;100.00
6938;BME280;40040;42.706;23.372;2022-12-20T06:37:39;143624.50;;;-2.34;100.00
6938;BME280;40040;42.706;23.372;2022-12-20T06:40:08;143576.91;;;-2.54;100.00
6938;BME280;40040;42.706;23.372;2022-12-20T06:42:35;143683.06;;;-2.10;100.00
6938;BME280;40040;42.706;23.372;2022-12-20T06:45:01;143635.47;;;-2.30;100.00
6938;BME280;40040;42.706;23.372;2022-12-20T06:47:28;143703.81;;;-2.01;100.00
6938;BME280;40040;42.706;23.372;2022-12-20T06:49:55;143706.25;;;-2.00;100.00
6938;BME280;40040;42.706;23.372;2022-12-20T06:52:22;143747.78;;;-1.83;100.00
6938;BME280;40040;42.706;23.372;2022-12-20T06:54:51;143694.03;;;-2.05;100.00
6938;BME280;40040;42.706;23.372;2022-12-20T06:57:17;143745.31;;;-1.84;100.00
6938;BME280;40040;42.706;23.372;2022-12-20T06:59:44;143781.97;;;-1.69;100.00
6938;BME280;40040;42.706;23.372;2022-12-20T07:02:11;143803.91;;;-1.60;100.00
6938;BME280;40040;42.706;23.372;2022-12-20T07:04:38;143810.03;;;-1.58;100.00
6938;BME280;40040;42.706;23.372;2022-12-20T07:07:05;143825.91;;;-1.51;100.00
6938;BME280;40040;42.706;23.372;2022-12-20T07:09:33;143840.56;;;-1.45;100.00
6938;BME280;40040;42.706;23.372;2022-12-20T07:12:01;143850.31;;;-1.41;100.00
6938;BME280;40040;42.706;23.372;2022-12-20T07:14:28;143852.78;;;-1.40;100.00
6938;BME280;40040;42.706;23.372;2022-12-20T07:16:55;143862.56;;;-1.36;100.00
6938;BME280;40040;42.706;23.372;2022-12-20T07:19:21;143883.34;;;-1.28;100.00
6938;BME280;40040;42.706;23.372;2022-12-20T07:21:48;143885.75;;;-1.27;100.00
6938;BME280;40040;42.706;23.372;2022-12-20T07:24:15;143889.41;;;-1.25;100.00
6938;BME280;40040;42.706;23.372;2022-12-20T07:26:43;143891.88;;;-1.24;100.00
6938;BME280;40040;42.706;23.372;2022-12-20T07:29:12;143916.31;;;-1.14;100.00
6938;BME280;40040;42.706;23.372;2022-12-20T07:31:38;143896.78;;;-1.22;100.00
6938;BME280;40040;42.706;23.372;2022-12-20T07:34:05;143944.38;;;-1.02;100.00
6938;BME280;40040;42.706;23.372;2022-12-20T07:36:32;143924.84;;;-1.10;100.00
6938;BME280;40040;42.706;23.372;2022-12-20T07:38:59;143993.28;;;-0.82;100.00
6938;BME280;40040;42.706;23.372;2022-12-20T07:41:26;144031.16;;;-0.67;100.00
6938;BME280;40040;42.706;23.372;2022-12-20T07:43:53;144032.41;;;-0.66;100.00
6938;BME280;40040;42.706;23.372;2022-12-20T07:46:24;143906.50;;;-1.18;100.00
6938;BME280;40040;42.706;23.372;2022-12-20T07:48:51;144033.59;;;-0.66;100.00
6938;BME280;40040;42.706;23.372;2022-12-20T07:51:23;144065.38;;;-0.53;100.00
6938;BME280;40040;42.706;23.372;2022-12-20T07:53:53;144092.25;;;-0.42;100.00
6938;BME280;40040;42.706;23.372;2022-12-20T07:56:25;144048.28;;;-0.60;100.00
6938;BME280;40040;42.706;23.372;2022-12-20T07:58:55;144111.84;;;-0.34;100.00
6938;BME280;40040;42.706;23.372;2022-12-20T08:01:25;144158.28;;;-0.15;100.00
6938;BME280;40040;42.706;23.372;2022-12-20T08:03:58;144023.84;;;-0.70;100.00
6938;BME280;40040;42.706;23.372;2022-12-20T08:06:25;144133.84;;;-0.25;100.00
6938;BME280;40040;42.706;23.372;2022-12-20T08:08:56;144141.16;;;-0.22;100.00
6938;BME280;40040;42.706;23.372;2022-12-20T08:11:25;144157.06;;;-0.15;100.00
6938;BME280;40040;42.706;23.372;2022-12-20T08:13:53;144182.75;;;-0.05;100.00
6938;BME280;40040;42.706;23.372;2022-12-20T08:16:20;144172.94;;;-0.09;100.00
6938;BME280;40040;42.706;23.372;2022-12-20T08:18:49;144175.41;;;-0.08;100.00
6938;BME280;40040;42.706;23.372;2022-12-20T08:21:15;144202.28;;;0.03;100.00
6938;BME280;40040;42.706;23.372;2022-12-20T08:23:43;144214.56;;;0.09;100.00
6938;BME280;40040;42.706;23.372;2022-12-20T08:26:10;144256.13;;;0.26;100.00
6938;BME280;40040;42.706;23.372;2022-12-20T08:28:37;144264.69;;;0.29;100.00
6938;BME280;40040;42.706;23.372;2022-12-20T08:31:06;144276.91;;;0.34;100.00
6938;BME280;40040;42.706;23.372;2022-12-20T08:33:34;144298.94;;;0.43;100.00
6938;BME280;40040;42.706;23.372;2022-12-20T08:36:04;144295.28;;;0.42;100.00
6938;BME280;40040;42.706;23.372;2022-12-20T08:38:32;144360.09;;;0.68;100.00
6938;BME280;40040;42.706;23.372;2022-12-20T08:41:03;144369.91;;;0.72;100.00
6938;BME280;40040;42.706;23.372;2022-12-20T08:43:31;144361.31;;;0.69;100.00
6938;BME280;40040;42.706;23.372;2022-12-20T08:45:58;144372.31;;;0.73;100.00
6938;BME280;40040;42.706;23.372;2022-12-20T08:48:25;144407.81;;;0.88;100.00
6938;BME280;40040;42.706;23.372;2022-12-20T08:50:56;144424.97;;;0.95;100.00
6938;BME280;40040;42.706;23.372;2022-12-20T08:53:24;144443.34;;;1.02;100.00
6938;BME280;40040;42.706;23.372;2022-12-20T08:55:52;144432.28;;;0.98;100.00
6938;BME280;40040;42.706;23.372;2022-12-20T08:58:19;144445.75;;;1.03;100.00
6938;BME280;40040;42.706;23.372;2022-12-20T09:00:46;144471.47;;;1.14;100.00
6938;BME280;40040;42.706;23.372;2022-12-20T09:03:13;144505.75;;;1.28;100.00
6938;BME280;40040;42.706;23.372;2022-12-20T09:05:44;144513.09;;;1.31;100.00
6938;BME280;40040;42.706;23.372;2022-12-20T09:08:12;144574.31;;;1.56;100.00
6938;BME280;40040;42.706;23.372;2022-12-20T09:10:40;144601.28;;;1.67;100.00
6938;BME280;40040;42.706;23.372;2022-12-20T09:13:08;144596.38;;;1.65;100.00
6938;BME280;40040;42.706;23.372;2022-12-20T09:15:35;144591.47;;;1.63;100.00
6938;BME280;40040;42.706;23.372;2022-12-20T09:18:02;144634.34;;;1.81;100.00
6938;BME280;40040;42.706;23.372;2022-12-20T09:20:30;144653.91;;;1.89;100.00
6938;BME280;40040;42.706;23.372;2022-12-20T09:22:57;144690.69;;;2.04;100.00
6938;BME280;40040;42.706;23.372;2022-12-20T09:25:25;144759.25;;;2.32;100.00
6938;BME280;40040;42.706;23.372;2022-12-20T09:27:53;144785.00;;;2.43;100.00
6938;BME280;40040;42.706;23.372;2022-12-20T09:30:21;144810.75;;;2.53;100.00
6938;BME280;40040;42.706;23.372;2022-12-20T09:32:48;144821.81;;;2.58;93.48
6938;BME280;40040;42.706;23.372;2022-12-20T09:35:15;144905.13;;;2.92;93.89
6938;BME280;40040;42.706;23.372;2022-12-20T09:37:42;144846.31;;;2.68;90.92
6938;BME280;40040;42.706;23.372;2022-12-20T09:40:15;144992.22;;;3.27;89.19
6938;BME280;40040;42.706;23.372;2022-12-20T09:42:43;145032.66;;;3.44;87.74
6938;BME280;40040;42.706;23.372;2022-12-20T09:45:18;145011.81;;;3.35;85.80
6938;BME280;40040;42.706;23.372;2022-12-20T09:47:48;145054.75;;;3.53;86.07
6938;BME280;40040;42.706;23.372;2022-12-20T09:50:18;145057.19;;;3.54;84.62
6938;BME280;40040;42.706;23.372;2022-12-20T09:52:54;145026.56;;;3.41;84.51
6938;BME280;40040;42.706;23.372;2022-12-20T09:55:30;145053.50;;;3.53;84.82
6938;BME280;40040;42.706;23.372;2022-12-20T09:58:29;145113.63;;;3.77;84.88
6938;BME280;40040;42.706;23.372;2022-12-20T10:01:11;145119.78;;;3.80;84.43
6938;BME280;40040;42.706;23.372;2022-12-20T10:03:40;145192.19;;;4.09;82.63
6938;BME280;40040;42.706;23.372;2022-12-20T10:06:13;145204.44;;;4.14;81.99
6938;BME280;40040;42.706;23.372;2022-12-20T10:08:44;145154.13;;;3.94;81.42
6938;BME280;40040;42.706;23.372;2022-12-20T10:11:32;145232.66;;;4.26;82.34
6938;BME280;40040;42.706;23.372;2022-12-20T10:14:08;145232.66;;;4.26;80.31
6938;BME280;40040;42.706;23.372;2022-12-20T10:16:44;145175.00;;;4.02;81.29
6938;BME280;40040;42.706;23.372;2022-12-20T10:19:21;145182.34;;;4.05;81.90
6938;BME280;40040;42.706;23.372;2022-12-20T10:21:54;145175.00;;;4.02;81.16
6938;BME280;40040;42.706;23.372;2022-12-20T10:24:25;145242.50;;;4.30;82.30
6938;BME280;40040;42.706;23.372;2022-12-20T10:26:54;145233.91;;;4.26;80.46
6938;BME280;40040;42.706;23.372;2022-12-20T10:29:22;145248.59;;;4.32;81.19
6938;BME280;40040;42.706;23.372;2022-12-20T10:31:51;145311.25;;;4.58;79.29
6938;BME280;40040;42.706;23.372;2022-12-20T10:34:20;145341.94;;;4.71;80.17
6938;BME280;40040;42.706;23.372;2022-12-20T10:36:48;145292.81;;;4.50;79.19
6938;BME280;40040;42.706;23.372;2022-12-20T10:39:40;145279.31;;;4.45;80.12
6938;BME280;40040;42.706;23.372;2022-12-20T10:42:23;145317.34;;;4.60;80.44
6938;BME280;40040;42.706;23.372;2022-12-20T10:44:51;145241.25;;;4.29;79.54
6938;BME280;40040;42.706;23.372;2022-12-20T10:47:33;145124.69;;;3.82;81.59
6938;BME280;40040;42.706;23.372;2022-12-20T10:50:13;145222.88;;;4.22;81.81
6938;BME280;40040;42.706;23.372;2022-12-20T10:52:41;145260.91;;;4.37;80.44
6938;BME280;40040;42.706;23.372;2022-12-20T10:55:33;145273.19;;;4.42;79.42
6938;BME280;40040;42.706;23.372;2022-12-20T10:58:05;145359.13;;;4.78;79.89
6938;BME280;40040;42.706;23.372;2022-12-20T11:00:39;145278.09;;;4.44;79.04
6938;BME280;40040;42.706;23.372;2022-12-20T11:03:14;145350.53;;;4.74;79.35
6938;BME280;40040;42.706;23.372;2022-12-20T11:05:53;145371.41;;;4.83;79.45
6938;BME280;40040;42.706;23.372;2022-12-20T11:08:21;145418.06;;;5.02;79.62
6938;BME280;40040;42.706;23.372;2022-12-20T11:11:09;145462.25;;;5.20;77.73
6938;BME280;40040;42.706;23.372;2022-12-20T11:13:37;145491.75;;;5.32;77.47
6938;BME280;40040;42.706;23.372;2022-12-20T11:16:05;145477.03;;;5.26;77.31
6938;BME280;40040;42.706;23.372;2022-12-20T11:18:42;145437.72;;;5.10;77.44
6938;BME280;40040;42.706;23.372;2022-12-20T11:21:21;145453.66;;;5.16;77.91
6938;BME280;40040;42.706;23.372;2022-12-20T11:23:54;145506.50;;;5.38;77.68
6938;BME280;40040;42.706;23.372;2022-12-20T11:26:34;145497.91;;;5.34;76.58
6938;BME280;40040;42.706;23.372;2022-12-20T11:29:19;145523.72;;;5.45;75.49
6938;BME280;40040;42.706;23.372;2022-12-20T11:31:59;145467.19;;;5.22;76.33
6938;BME280;40040;42.706;23.372;2022-12-20T11:34:38;145413.16;;;5.00;74.21
6938;BME280;40040;42.706;23.372;2022-12-20T11:37:17;145495.47;;;5.33;73.87
6938;BME280;40040;42.706;23.372;2022-12-20T11:39:57;145538.44;;;5.51;72.75
6938;BME280;40040;42.706;23.372;2022-12-20T11:42:36;145529.81;;;5.47;71.88
6938;BME280;40040;42.706;23.372;2022-12-20T11:45:10;145587.59;;;5.71;71.28
6938;BME280;40040;42.706;23.372;2022-12-20T11:48:03;145639.28;;;5.92;71.48
6938;BME280;40040;42.706;23.372;2022-12-20T11:50:51;145700.69;;;6.17;69.58
6938;BME280;40040;42.706;23.372;2022-12-20T11:53:25;145789.25;;;6.53;69.25
6938;BME280;40040;42.706;23.372;2022-12-20T11:55:58;145859.34;;;6.82;68.73
6938;BME280;40040;42.706;23.372;2022-12-20T11:58:31;145864.28;;;6.84;63.93
6938;BME280;40040;42.706;23.372;2022-12-20T12:01:03;145796.63;;;6.56;63.84
6938;BME280;40040;42.706;23.372;2022-12-20T12:03:33;145732.69;;;6.30;63.93
6938;BME280;40040;42.706;23.372;2022-12-20T12:06:05;145746.22;;;6.36;65.05
6938;BME280;40040;42.706;23.372;2022-12-20T12:08:40;145713.03;;;6.22;64.49
6938;BME280;40040;42.706;23.372;2022-12-20T12:11:13;145741.31;;;6.34;65.31
6938;BME280;40040;42.706;23.372;2022-12-20T12:13:42;145730.25;;;6.29;64.93
6938;BME280;40040;42.706;23.372;2022-12-20T12:16:13;145699.50;;;6.17;65.22
6938;BME280;40040;42.706;23.372;2022-12-20T12:18:42;145654.00;;;5.98;64.07
6938;BME280;40040;42.706;23.372;2022-12-20T12:21:17;145657.72;;;6.00;65.01
6938;BME280;40040;42.706;23.372;2022-12-20T12:23:54;145671.22;;;6.05;64.31
6938;BME280;40040;42.706;23.372;2022-12-20T12:26:26;145715.47;;;6.23;64.66
6938;BME280;40040;42.706;23.372;2022-12-20T12:28:55;145695.81;;;6.15;64.53
6938;BME280;40040;42.706;23.372;2022-12-20T12:31:27;145705.63;;;6.19;65.21
6938;BME280;40040;42.706;23.372;2022-12-20T12:34:04;145764.63;;;6.43;64.26
6938;BME280;40040;42.706;23.372;2022-12-20T12:36:58;145713.03;;;6.22;65.10
6938;BME280;40040;42.706;23.372;2022-12-20T12:40:00;145698.25;;;6.16;65.11
6938;BME280;40040;42.706;23.372;2022-12-20T12:45:22;145865.50;;;6.84;64.76
6938;BME280;40040;42.706;23.372;2022-12-20T12:47:51;145924.56;;;7.09;63.99
6938;BME280;40040;42.706;23.372;2022-12-20T12:50:23;146151.00;;;8.01;62.22
6938;BME280;40040;42.706;23.372;2022-12-20T12:52:53;146181.81;;;8.14;57.85
6938;BME280;40040;42.706;23.372;2022-12-20T12:55:40;146185.50;;;8.15;57.96
6938;BME280;40040;42.706;23.372;2022-12-20T12:58:29;146170.69;;;8.09;56.38
6938;BME280;40040;42.706;23.372;2022-12-20T13:00:57;146064.84;;;7.66;57.28
6938;BME280;40040;42.706;23.372;2022-12-20T13:03:45;146042.66;;;7.57;57.55
6938;BME280;40040;42.706;23.372;2022-12-20T13:06:50;146029.16;;;7.51;57.36
6938;BME280;40040;42.706;23.372;2022-12-20T13:09:36;146043.91;;;7.57;57.86
6938;BME280;40040;42.706;23.372;2022-12-20T13:15:47;145920.88;;;7.07;58.34